Time;durP1;ratioP1;P1;durP2;ratioP2;P2;SDS_P1;SDS_P2;PMS_P1;PMS_P2;Temp;Humidity;BMP_temperature;BMP_pressure;BME280_temperature;BME280_humidity;BME280_pressure;Samples;Min_cycle;Max_cycle;Signal;HPM_P1;HPM_P2
2023/02/10 00:01:11;;;;;;;12.30;5.80;;;;;;;-4.37;60.71;98240.20;109082;1267;22637;-83
2023/02/10 00:03:45;;;;;;;12.50;5.80;;;;;;;-4.40;60.58;98240.90;108914;1273;187876;-83
2023/02/10 00:06:17;;;;;;;14.40;5.70;;;;;;;-4.46;60.49;98252.27;109088;1273;25384;-83
2023/02/10 00:08:51;;;;;;;13.30;6.60;;;;;;;-4.50;60.36;98256.80;109028;1272;87334;-83
2023/02/10 00:11:56;;;;;;;13.60;6.90;;;;;;;-4.50;60.22;98257.98;109090;1273;22663;-83
2023/02/10 00:14:15;;;;;;;15.70;6.40;;;;;;;-4.44;60.06;98255.20;109109;1270;22634;-83
2023/02/10 00:16:49;;;;;;;15.60;7.30;;;;;;;-4.44;60.01;98257.25;109094;1273;22573;-83
2023/02/10 00:19:21;;;;;;;15.40;7.80;;;;;;;-4.51;60.06;98262.58;109046;1270;42790;-83
2023/02/10 00:21:54;;;;;;;13.60;6.60;;;;;;;-4.54;60.18;98258.75;109100;1273;22554;-84
2023/02/10 00:24:26;;;;;;;13.20;7.40;;;;;;;-4.57;60.08;98251.54;109092;1273;25409;-83
2023/02/10 00:26:57;;;;;;;19.60;10.00;;;;;;;-4.57;60.24;98256.04;109090;1273;25367;-82
2023/02/10 00:29:31;;;;;;;14.70;8.20;;;;;;;-4.57;60.25;98246.40;109030;1272;55441;-83
2023/02/10 00:32:04;;;;;;;13.00;7.40;;;;;;;-4.59;60.28;98263.38;109103;1266;22528;-83
2023/02/10 00:34:35;;;;;;;11.50;7.20;;;;;;;-4.60;60.27;98263.41;109065;1273;25030;-83
2023/02/10 00:37:06;;;;;;;11.40;6.40;;;;;;;-4.62;60.23;98240.52;109060;1251;22643;-83
2023/02/10 00:39:37;;;;;;;19.90;10.50;;;;;;;-4.64;60.32;98251.92;109049;1268;107448;-83
2023/02/10 00:42:08;;;;;;;12.70;6.50;;;;;;;-4.66;60.33;98241.58;109098;1273;22531;-84
2023/02/10 00:44:39;;;;;;;11.70;5.80;;;;;;;-4.69;60.35;98237.86;109067;1268;24415;-84
2023/02/10 00:47:10;;;;;;;14.50;8.00;;;;;;;-4.69;60.37;98252.92;109055;1273;22550;-82
2023/02/10 00:49:41;;;;;;;14.70;6.90;;;;;;;-4.73;60.28;98245.64;109228;1272;22549;-83
2023/02/10 00:52:12;;;;;;;12.80;7.10;;;;;;;-4.68;60.37;98237.09;109186;1272;22539;-83
2023/02/10 00:54:43;;;;;;;13.00;6.60;;;;;;;-4.65;60.36;98249.72;109179;1266;26036;-83
2023/02/10 00:57:14;;;;;;;12.90;7.00;;;;;;;-4.68;60.27;98249.29;109308;1260;22935;-83
2023/02/10 00:59:45;;;;;;;17.20;9.30;;;;;;;-4.69;60.25;98244.77;109276;1272;22660;-83
2023/02/10 01:02:19;;;;;;;15.30;8.80;;;;;;;-4.74;60.49;98248.21;109259;1251;22560;-83
2023/02/10 01:04:50;;;;;;;11.30;6.00;;;;;;;-4.81;60.57;98252.58;109261;1272;22518;-83
2023/02/10 01:07:21;;;;;;;13.30;7.30;;;;;;;-4.80;60.61;98250.23;109242;1272;58465;-83
2023/02/10 01:09:52;;;;;;;15.40;8.50;;;;;;;-4.80;60.60;98265.04;109058;1271;24327;-83
2023/02/10 01:12:23;;;;;;;11.20;6.30;;;;;;;-4.80;60.61;98269.38;109035;1274;24448;-83
2023/02/10 01:14:54;;;;;;;19.20;8.20;;;;;;;-4.78;60.79;98281.84;108991;1274;24189;-83
2023/02/10 01:17:27;;;;;;;12.50;5.50;;;;;;;-4.82;61.06;98282.98;109085;1273;55130;-83
2023/02/10 01:19:59;;;;;;;8.90;4.50;;;;;;;-4.87;61.20;98281.92;109063;1267;25297;-83
2023/02/10 01:22:30;;;;;;;15.60;8.40;;;;;;;-4.94;61.52;98285.16;109085;1270;22563;-83
2023/02/10 01:25:01;;;;;;;11.80;5.90;;;;;;;-4.96;61.69;98275.16;109080;1272;22532;-83
2023/02/10 01:27:32;;;;;;;11.70;7.20;;;;;;;-4.95;61.79;98279.05;109017;1272;40910;-84
2023/02/10 01:30:05;;;;;;;12.30;6.50;;;;;;;-4.98;61.83;98280.55;109045;1272;22527;-84
2023/02/10 01:32:37;;;;;;;12.40;7.30;;;;;;;-4.98;62.00;98274.35;109071;1273;23434;-83
2023/02/10 01:35:08;;;;;;;14.30;6.90;;;;;;;-5.03;61.93;98265.81;109152;1267;22540;-83
2023/02/10 01:37:40;;;;;;;13.30;7.20;;;;;;;-5.07;62.06;98256.86;109032;1273;54343;-84
2023/02/10 01:40:12;;;;;;;11.00;6.10;;;;;;;-5.09;62.16;98251.52;109123;1267;24281;-83
2023/02/10 01:42:46;;;;;;;9.70;4.40;;;;;;;-5.08;62.22;98245.93;109111;1273;22517;-83
2023/02/10 01:45:25;;;;;;;12.10;5.00;;;;;;;-5.02;62.39;98228.01;109074;1273;22558;-83
2023/02/10 01:48:00;;;;;;;9.50;5.70;;;;;;;-5.06;62.46;98217.35;109050;1266;35128;-81
2023/02/10 01:50:36;;;;;;;10.40;5.80;;;;;;;-5.15;62.75;98215.92;109113;1267;22592;-83
2023/02/10 01:53:08;;;;;;;12.00;6.20;;;;;;;-5.17;62.81;98216.97;109157;1273;22915;-83
2023/02/10 01:55:42;;;;;;;10.40;5.10;;;;;;;-5.18;62.76;98205.84;109133;1273;22556;-83
2023/02/10 01:58:18;;;;;;;11.90;7.00;;;;;;;-5.20;62.86;98196.24;109072;1270;71189;-83
2023/02/10 02:00:49;;;;;;;12.70;7.60;;;;;;;-5.20;62.95;98205.66;109047;1273;22599;-83
2023/02/10 02:03:21;;;;;;;14.40;7.50;;;;;;;-5.21;63.08;98189.92;109086;1269;25288;-83
2023/02/10 02:05:52;;;;;;;14.40;6.90;;;;;;;-5.24;63.02;98187.64;109108;1272;22612;-82
2023/02/10 02:08:26;;;;;;;12.90;6.40;;;;;;;-5.22;63.07;98182.44;109029;1268;59162;-82
2023/02/10 02:11:17;;;;;;;13.20;7.60;;;;;;;-5.16;63.30;98172.71;109129;1272;22647;-82
2023/02/10 02:14:11;;;;;;;11.90;7.10;;;;;;;-5.13;63.28;98184.48;109110;1273;23711;-82
2023/02/10 02:16:53;;;;;;;14.40;7.50;;;;;;;-5.13;63.49;98182.25;109100;1273;22552;-82
2023/02/10 02:23:06;;;;;;;11.20;7.00;;;;;;;-5.16;63.70;98174.43;109023;1274;22554;-82
2023/02/10 02:25:55;;;;;;;15.40;7.50;;;;;;;-5.14;63.79;98163.79;109080;1270;22468;-82
2023/02/10 02:28:40;;;;;;;13.70;8.20;;;;;;;-5.13;63.86;98158.01;109115;1266;33900;-81
2023/02/10 02:31:42;;;;;;;13.30;8.40;;;;;;;-5.11;63.65;98157.61;109073;1272;23821;-82
2023/02/10 02:34:19;;;;;;;15.80;8.50;;;;;;;-4.97;63.52;98157.48;109162;1272;22483;-81
2023/02/10 02:36:54;;;;;;;14.80;7.90;;;;;;;-4.77;62.97;98153.92;109089;1273;22544;-82
2023/02/10 02:39:27;;;;;;;13.10;7.40;;;;;;;-4.63;62.62;98162.13;109034;1265;57430;-82
2023/02/10 02:42:22;;;;;;;13.50;7.30;;;;;;;-4.57;62.34;98179.34;109091;1270;22655;-83
2023/02/10 02:44:58;;;;;;;13.20;7.40;;;;;;;-4.52;62.11;98177.48;108996;1273;22499;-82
2023/02/10 02:47:54;;;;;;;15.70;7.30;;;;;;;-4.54;62.38;98181.06;109038;1265;52692;-82
2023/02/10 02:50:34;;;;;;;14.50;7.70;;;;;;;-4.70;62.23;98185.41;109081;1273;25427;-82
2023/02/10 02:53:17;;;;;;;14.70;8.00;;;;;;;-4.88;62.67;98188.59;109104;1253;22517;-82
2023/02/10 02:56:04;;;;;;;15.30;7.90;;;;;;;-5.06;63.09;98181.96;109033;1270;22545;-82
2023/02/10 02:58:47;;;;;;;11.10;6.00;;;;;;;-5.16;63.49;98178.38;109068;1272;34813;-82
2023/02/10 03:01:24;;;;;;;14.30;7.60;;;;;;;-5.17;63.80;98177.10;109118;1273;24181;-83
2023/02/10 03:03:58;;;;;;;10.80;6.30;;;;;;;-5.12;63.81;98170.83;109044;1273;23027;-82
2023/02/10 03:06:29;;;;;;;11.40;5.90;;;;;;;-5.10;64.03;98174.52;109157;1267;25239;-82
2023/02/10 03:09:00;;;;;;;10.30;5.50;;;;;;;-5.06;64.26;98165.48;109041;1267;53055;-82
2023/02/10 03:11:31;;;;;;;15.80;8.50;;;;;;;-5.05;64.23;98165.55;109094;1273;25505;-82
2023/02/10 03:14:02;;;;;;;14.50;7.70;;;;;;;-5.05;64.21;98169.99;109073;1272;22657;-82
2023/02/10 03:16:33;;;;;;;11.70;5.10;;;;;;;-5.06;64.34;98172.71;109106;1272;25398;-81
2023/02/10 03:19:04;;;;;;;10.80;6.90;;;;;;;-5.12;64.16;98167.65;109067;1269;41971;-82
2023/02/10 03:21:35;;;;;;;16.60;9.40;;;;;;;-5.11;64.44;98166.52;109102;1272;22562;-82
2023/02/10 03:24:08;;;;;;;12.40;6.60;;;;;;;-5.10;64.49;98170.91;109106;1257;23781;-82
2023/02/10 03:26:40;;;;;;;13.20;6.70;;;;;;;-5.07;64.38;98175.32;109123;1258;22567;-82
2023/02/10 03:29:13;;;;;;;13.20;6.20;;;;;;;-5.06;64.32;98171.84;109087;1272;31384;-83
2023/02/10 03:31:44;;;;;;;15.20;7.50;;;;;;;-5.13;64.51;98180.15;109080;1273;22527;-82
2023/02/10 03:34:16;;;;;;;14.60;7.10;;;;;;;-5.17;64.53;98187.34;109119;1265;22457;-82
2023/02/10 03:36:49;;;;;;;16.10;9.60;;;;;;;-5.19;64.54;98187.80;109087;1250;22544;-82
2023/02/10 03:39:23;;;;;;;17.80;9.10;;;;;;;-5.27;64.73;98192.35;109084;1273;40504;-82
2023/02/10 03:41:54;;;;;;;15.20;9.50;;;;;;;-5.33;65.03;98200.86;109101;1273;22579;-82
2023/02/10 03:44:25;;;;;;;14.30;6.30;;;;;;;-5.38;65.13;98199.50;109004;1273;24213;-82
2023/02/10 03:47:05;;;;;;;15.10;8.00;;;;;;;-5.39;65.33;98202.25;109094;1267;23324;-81
2023/02/10 03:49:39;;;;;;;23.80;10.50;;;;;;;-5.42;65.52;98200.25;108970;1269;141457;-82
2023/02/10 03:52:10;;;;;;;18.00;9.60;;;;;;;-5.44;65.75;98204.06;109097;1273;22530;-81
2023/02/10 03:54:42;;;;;;;16.40;8.30;;;;;;;-5.48;65.97;98199.61;109097;1266;22561;-81
2023/02/10 03:57:14;;;;;;;14.20;8.00;;;;;;;-5.53;65.86;98197.29;109118;1272;22606;-81
2023/02/10 03:59:46;;;;;;;20.00;9.90;;;;;;;-5.55;66.05;98197.82;109055;1270;51675;-82
2023/02/10 04:02:17;;;;;;;18.90;9.60;;;;;;;-5.56;66.20;98203.42;109126;1250;22553;-82
2023/02/10 04:04:54;;;;;;;17.60;9.20;;;;;;;-5.59;66.11;98203.05;109093;1266;22544;-81
2023/02/10 04:07:25;;;;;;;15.20;9.30;;;;;;;-5.61;66.23;98199.24;109030;1265;107897;-82
2023/02/10 04:09:58;;;;;;;17.20;9.00;;;;;;;-5.60;66.25;98200.71;109056;1273;25468;-82
2023/02/10 04:12:29;;;;;;;20.00;9.60;;;;;;;-5.58;66.67;98198.59;109144;1267;23758;-82
2023/02/10 04:15:03;;;;;;;20.50;8.60;;;;;;;-5.55;66.65;98197.67;109064;1265;22740;-82
2023/02/10 04:17:42;;;;;;;15.60;8.60;;;;;;;-5.56;66.79;98201.49;109019;1272;63861;-82
2023/02/10 04:20:14;;;;;;;15.00;8.90;;;;;;;-5.55;66.77;98190.96;109100;1266;23710;-83
2023/02/10 04:22:48;;;;;;;14.80;7.90;;;;;;;-5.53;66.64;98197.99;109101;1270;22559;-82
2023/02/10 04:25:25;;;;;;;15.20;7.80;;;;;;;-5.55;66.63;98190.09;109087;1265;23253;-82
2023/02/10 04:27:58;;;;;;;21.30;11.90;;;;;;;-5.56;66.88;98195.86;109089;1259;44847;-82
2023/02/10 04:30:31;;;;;;;19.90;8.70;;;;;;;-5.54;66.97;98203.06;109065;1266;23121;-81
2023/02/10 04:33:05;;;;;;;21.30;9.40;;;;;;;-5.51;66.97;98200.52;109089;1265;22536;-81
2023/02/10 04:35:37;;;;;;;15.80;8.40;;;;;;;-5.49;66.91;98206.91;109195;1273;22554;-82
2023/02/10 04:38:18;;;;;;;16.50;8.60;;;;;;;-5.50;66.75;98210.09;109029;1268;24681;-82
2023/02/10 04:40:50;;;;;;;10.70;6.60;;;;;;;-5.50;66.97;98220.10;109094;1265;22522;-82
2023/02/10 04:43:21;;;;;;;17.90;8.40;;;;;;;-5.51;67.07;98217.95;109071;1265;23873;-82
2023/02/10 04:45:54;;;;;;;16.80;9.20;;;;;;;-5.50;66.96;98223.69;109086;1265;22525;-83
2023/02/10 04:48:26;;;;;;;19.10;10.60;;;;;;;-5.48;67.03;98222.02;109045;1272;35271;-83
2023/02/10 04:51:00;;;;;;;19.70;11.00;;;;;;;-5.47;67.05;98225.40;109080;1273;22558;-82
2023/02/10 04:53:33;;;;;;;15.80;9.10;;;;;;;-5.50;66.98;98225.98;109089;1265;22653;-83
2023/02/10 04:56:08;;;;;;;11.40;5.70;;;;;;;-5.50;66.91;98224.20;109111;1272;24215;-82
2023/02/10 04:58:45;;;;;;;12.40;7.90;;;;;;;-5.45;66.96;98223.81;109093;1265;30294;-82
2023/02/10 05:01:19;;;;;;;16.10;8.90;;;;;;;-5.41;67.07;98227.90;109104;1266;22837;-83
2023/02/10 05:03:50;;;;;;;14.60;8.50;;;;;;;-5.40;67.16;98231.24;109113;1267;22566;-82
2023/02/10 05:06:22;;;;;;;12.70;6.90;;;;;;;-5.41;67.03;98235.49;109073;1266;22594;-82
2023/02/10 05:08:54;;;;;;;15.10;8.50;;;;;;;-5.42;66.94;98238.81;109080;1273;43762;-82
2023/02/10 05:11:25;;;;;;;15.50;8.80;;;;;;;-5.41;66.73;98240.28;109088;1265;24159;-82
2023/02/10 05:13:56;;;;;;;17.00;8.90;;;;;;;-5.42;66.93;98242.59;109111;1265;22547;-82
2023/02/10 05:16:27;;;;;;;15.30;7.70;;;;;;;-5.40;66.76;98241.96;109111;1265;22545;-82
2023/02/10 05:19:00;;;;;;;11.20;6.30;;;;;;;-5.37;66.90;98244.38;109059;1272;42084;-82
2023/02/10 05:21:31;;;;;;;14.80;8.60;;;;;;;-5.32;67.01;98238.83;109080;1266;22717;-82
2023/02/10 05:24:03;;;;;;;16.90;9.30;;;;;;;-5.28;66.69;98245.04;109102;1273;22548;-83
2023/02/10 05:26:34;;;;;;;15.00;8.50;;;;;;;-5.31;66.73;98241.29;109067;1273;23356;-83
2023/02/10 05:29:05;;;;;;;13.80;7.00;;;;;;;-5.30;66.71;98234.54;109032;1273;49558;-83
2023/02/10 05:31:36;;;;;;;11.20;6.20;;;;;;;-5.26;66.54;98240.67;109054;1273;23779;-83
2023/02/10 05:34:07;;;;;;;13.80;7.40;;;;;;;-5.26;66.50;98236.41;109087;1273;24255;-83
2023/02/10 05:36:43;;;;;;;14.20;7.00;;;;;;;-5.30;66.75;98241.29;109093;1272;22565;-82
2023/02/10 05:39:26;;;;;;;13.60;7.50;;;;;;;-5.31;66.63;98242.92;109040;1273;63846;-82
2023/02/10 05:42:00;;;;;;;14.10;8.50;;;;;;;-5.32;66.86;98259.36;109120;1273;22533;-82
2023/02/10 05:44:32;;;;;;;16.70;8.80;;;;;;;-5.30;66.71;98266.95;109084;1273;25892;-83
2023/02/10 05:47:03;;;;;;;13.40;7.10;;;;;;;-5.30;66.73;98261.91;109019;1273;22530;-82
2023/02/10 05:49:34;;;;;;;15.70;7.70;;;;;;;-5.27;66.61;98261.30;109003;1273;34458;-83
2023/02/10 05:52:05;;;;;;;14.40;8.50;;;;;;;-5.27;66.75;98258.06;109078;1270;22558;-83
2023/02/10 05:54:36;;;;;;;12.20;6.90;;;;;;;-5.23;66.68;98256.27;109100;1273;22917;-82
2023/02/10 05:57:08;;;;;;;10.40;6.20;;;;;;;-5.22;66.68;98252.23;109122;1272;23738;-82
2023/02/10 05:59:46;;;;;;;14.50;7.50;;;;;;;-5.21;66.43;98257.08;109113;1264;36140;-82
2023/02/10 06:02:19;;;;;;;13.40;7.90;;;;;;;-5.20;66.51;98254.94;109195;1272;22519;-82
2023/02/10 06:04:54;;;;;;;12.60;7.00;;;;;;;-5.19;66.54;98249.73;109084;1270;23837;-83
2023/02/10 06:07:27;;;;;;;16.40;8.30;;;;;;;-5.19;66.60;98249.55;109076;1271;62310;-82
2023/02/10 06:09:58;;;;;;;14.10;7.50;;;;;;;-5.19;66.67;98258.14;109162;1258;22556;-83
2023/02/10 06:12:29;;;;;;;14.60;7.20;;;;;;;-5.18;66.60;98265.27;109100;1272;22582;-81
2023/02/10 06:15:02;;;;;;;13.80;7.40;;;;;;;-5.16;66.65;98268.88;109087;1272;23446;-83
2023/02/10 06:17:33;;;;;;;13.30;7.50;;;;;;;-5.14;66.64;98269.05;109096;1273;46748;-82
2023/02/10 06:20:05;;;;;;;11.90;6.70;;;;;;;-5.12;66.71;98275.91;109066;1272;22478;-82
2023/02/10 06:22:36;;;;;;;14.70;8.20;;;;;;;-5.03;66.62;98267.94;109016;1273;22611;-83
2023/02/10 06:25:08;;;;;;;22.70;9.00;;;;;;;-4.99;66.50;98260.93;109083;1265;22715;-83
2023/02/10 06:27:39;;;;;;;14.90;8.70;;;;;;;-4.98;66.42;98266.20;109046;1265;56045;-83
2023/02/10 06:30:13;;;;;;;16.80;8.10;;;;;;;-4.87;66.16;98258.70;109095;1266;25329;-83
2023/02/10 06:32:44;;;;;;;14.80;9.00;;;;;;;-4.75;66.11;98264.63;109056;1273;22588;-83
2023/02/10 06:35:18;;;;;;;15.70;8.50;;;;;;;-4.73;65.62;98260.52;109091;1273;22524;-83
2023/02/10 06:37:51;;;;;;;20.60;11.80;;;;;;;-4.84;65.45;98265.24;109045;1268;33666;-83
2023/02/10 06:40:24;;;;;;;14.80;8.20;;;;;;;-4.76;65.76;98283.52;109069;1265;22568;-83
2023/02/10 06:43:00;;;;;;;14.40;8.00;;;;;;;-4.53;65.37;98270.00;109062;1273;22526;-82
2023/02/10 06:45:36;;;;;;;17.00;8.20;;;;;;;-4.23;64.94;98273.27;109052;1273;22610;-83
2023/02/10 06:48:10;;;;;;;15.70;9.00;;;;;;;-3.88;64.37;98276.16;109019;1273;37945;-84
2023/02/10 06:50:42;;;;;;;16.20;9.80;;;;;;;-3.99;63.51;98273.36;109077;1272;22560;-83
2023/02/10 06:53:13;;;;;;;16.50;10.40;;;;;;;-4.03;63.60;98281.16;109035;1251;22502;-83
2023/02/10 06:55:45;;;;;;;16.70;9.70;;;;;;;-3.55;63.85;98283.30;109106;1273;22523;-83
2023/02/10 06:58:19;;;;;;;18.40;11.40;;;;;;;-3.04;63.25;98287.33;109021;1265;135408;-82
2023/02/10 07:00:50;;;;;;;17.40;11.30;;;;;;;-2.50;62.46;98284.20;109125;1273;22582;-81
2023/02/10 07:03:22;;;;;;;17.40;11.50;;;;;;;-2.07;61.63;98285.31;109089;1252;22773;-82
2023/02/10 07:05:55;;;;;;;15.50;8.70;;;;;;;-1.85;60.11;98278.04;109179;1270;25475;-82
2023/02/10 07:08:33;;;;;;;17.30;10.90;;;;;;;-1.75;59.52;98268.90;109057;1268;50141;-82
2023/02/10 07:11:08;;;;;;;16.50;10.80;;;;;;;-1.62;58.54;98267.30;109060;1273;22520;-82
2023/02/10 07:13:40;;;;;;;17.60;11.40;;;;;;;-1.68;57.26;98268.85;109059;1273;22478;-81
2023/02/10 07:16:20;;;;;;;16.50;9.70;;;;;;;-1.78;57.35;98264.31;109107;1265;22658;-81
2023/02/10 07:18:55;;;;;;;19.80;14.10;;;;;;;-1.86;57.19;98276.59;107603;1273;2014607;-81
2023/02/10 07:21:30;;;;;;;18.30;11.70;;;;;;;-1.60;57.59;98289.99;109069;1273;22475;-82
2023/02/10 07:24:01;;;;;;;18.70;14.00;;;;;;;-1.29;57.08;98291.90;109064;1266;23867;-82
2023/02/10 07:26:33;;;;;;;19.30;14.00;;;;;;;-0.87;57.29;98291.62;109104;1273;22537;-82
2023/02/10 07:29:05;;;;;;;19.30;12.80;;;;;;;-0.29;56.75;98285.52;108993;1273;58071;-81
2023/02/10 07:31:38;;;;;;;20.70;14.40;;;;;;;-0.05;54.99;98283.86;109025;1269;22513;-81
2023/02/10 07:34:11;;;;;;;17.50;12.90;;;;;;;0.03;55.22;98285.23;109092;1265;25434;-82
2023/02/10 07:36:44;;;;;;;18.80;13.90;;;;;;;0.25;54.48;98290.31;109050;1273;22538;-82
2023/02/10 07:39:15;;;;;;;17.00;12.70;;;;;;;0.59;54.70;98292.91;108998;1265;74184;-81
2023/02/10 07:41:47;;;;;;;18.20;13.50;;;;;;;1.08;54.75;98295.65;109052;1268;22569;-82
2023/02/10 07:44:21;;;;;;;19.70;13.40;;;;;;;1.44;53.33;98289.50;109052;1273;24254;-82
2023/02/10 07:46:55;;;;;;;17.70;13.60;;;;;;;1.42;52.89;98281.98;109087;1254;22544;-82
2023/02/10 07:49:28;;;;;;;19.40;16.00;;;;;;;1.79;52.39;98281.27;109020;1269;98541;-82
2023/02/10 07:52:00;;;;;;;18.70;14.00;;;;;;;2.00;51.70;98275.49;109040;1266;22589;-81
2023/02/10 07:54:34;;;;;;;17.50;13.90;;;;;;;2.35;52.03;98281.38;109075;1270;22714;-81
2023/02/10 07:57:05;;;;;;;18.40;14.30;;;;;;;2.61;51.13;98280.09;109038;1266;22531;-83
2023/02/10 07:59:40;;;;;;;16.90;13.70;;;;;;;2.58;51.13;98283.48;108980;1269;103198;-80
2023/02/10 08:02:14;;;;;;;18.90;13.40;;;;;;;2.95;50.77;98277.35;109064;1268;22454;-81
2023/02/10 08:04:45;;;;;;;18.80;13.20;;;;;;;2.71;49.31;98274.35;109106;1265;22671;-81
2023/02/10 08:07:16;;;;;;;19.60;15.10;;;;;;;2.46;49.22;98273.85;109077;1270;22522;-81
2023/02/10 08:09:50;;;;;;;17.90;13.80;;;;;;;2.33;49.16;98276.09;109025;1270;49695;-81
2023/02/10 08:12:22;;;;;;;19.40;15.40;;;;;;;2.29;48.97;98282.54;109077;1273;22538;-80
2023/02/10 08:14:54;;;;;;;18.60;15.10;;;;;;;2.20;48.83;98287.30;109067;1265;22575;-81
2023/02/10 08:17:25;;;;;;;19.30;14.60;;;;;;;2.20;49.20;98293.20;109005;1273;64817;-81
2023/02/10 08:19:58;;;;;;;19.70;15.20;;;;;;;2.55;49.40;98301.73;109134;1270;23769;-81
2023/02/10 08:22:31;;;;;;;24.90;16.50;;;;;;;2.90;49.20;98302.89;109038;1274;22531;-81
2023/02/10 08:25:03;;;;;;;23.40;16.20;;;;;;;3.23;49.37;98298.34;109100;1273;23223;-81
2023/02/10 08:27:34;;;;;;;20.60;15.20;;;;;;;3.48;48.74;98299.77;109029;1265;70129;-81
2023/02/10 08:30:10;;;;;;;22.90;15.60;;;;;;;3.62;48.37;98303.06;109114;1270;23952;-81
2023/02/10 08:32:41;;;;;;;22.00;14.50;;;;;;;3.56;48.36;98304.44;109087;1265;24270;-81
2023/02/10 08:35:13;;;;;;;21.90;15.60;;;;;;;3.49;47.40;98307.52;109131;1266;24383;-82
2023/02/10 08:37:46;;;;;;;20.70;14.00;;;;;;;3.00;47.13;98306.77;109060;1257;27018;-80
2023/02/10 08:40:17;;;;;;;22.20;15.90;;;;;;;2.55;47.88;98308.59;109119;1266;24158;-80
2023/02/10 08:42:48;;;;;;;23.90;15.40;;;;;;;2.62;48.31;98308.53;109086;1273;23802;-79
2023/02/10 08:45:19;;;;;;;22.30;14.20;;;;;;;2.54;47.99;98308.00;109068;1273;22544;-80
2023/02/10 08:47:50;;;;;;;23.30;13.20;;;;;;;2.16;48.15;98299.98;109048;1266;71552;-80
2023/02/10 08:50:21;;;;;;;23.20;15.30;;;;;;;2.01;48.12;98296.27;109152;1270;23802;-81
2023/02/10 08:52:53;;;;;;;21.60;13.80;;;;;;;1.70;48.32;98302.89;109086;1265;22635;-81
2023/02/10 08:55:24;;;;;;;21.40;13.00;;;;;;;1.41;48.84;98306.65;109096;1273;22525;-81
2023/02/10 08:57:55;;;;;;;19.70;11.90;;;;;;;0.96;48.73;98303.59;109061;1267;62046;-81
2023/02/10 09:00:29;;;;;;;21.90;13.60;;;;;;;0.22;49.42;98309.75;109158;1273;23191;-81
2023/02/10 09:03:00;;;;;;;22.50;14.30;;;;;;;-0.19;50.41;98318.13;109072;1265;25430;-80
2023/02/10 09:05:35;;;;;;;19.50;12.70;;;;;;;-0.38;51.11;98309.81;109118;1262;22479;-81
2023/02/10 09:08:07;;;;;;;19.90;12.40;;;;;;;-0.55;51.53;98314.05;109035;1265;86925;-81
2023/02/10 09:10:39;;;;;;;20.60;12.50;;;;;;;-0.61;52.10;98309.86;109124;1273;22540;-81
2023/02/10 09:13:10;;;;;;;22.40;14.20;;;;;;;-0.46;52.38;98316.01;109087;1269;22517;-81
2023/02/10 09:15:43;;;;;;;22.30;14.60;;;;;;;-0.40;52.40;98320.96;109099;1273;22571;-81
2023/02/10 09:18:17;;;;;;;24.00;14.60;;;;;;;-0.43;52.67;98321.12;108984;1266;39782;-81
2023/02/10 09:20:48;;;;;;;23.30;15.70;;;;;;;-0.46;52.96;98326.98;109061;1268;25011;-82
2023/02/10 09:23:20;;;;;;;22.60;14.30;;;;;;;-0.37;53.51;98326.64;109094;1271;22513;-81
2023/02/10 09:25:56;;;;;;;23.70;15.10;;;;;;;-0.26;53.94;98326.07;109082;1273;22555;-82
2023/02/10 09:28:29;;;;;;;23.10;14.80;;;;;;;-0.17;53.54;98329.67;109041;1270;41462;-81
2023/02/10 09:31:01;;;;;;;23.00;14.50;;;;;;;-0.02;53.77;98336.39;109090;1273;22520;-81
2023/02/10 09:33:32;;;;;;;23.30;15.30;;;;;;;0.11;53.16;98339.89;109102;1265;24915;-81
2023/02/10 09:36:07;;;;;;;23.90;15.40;;;;;;;0.15;53.44;98338.90;109141;1273;22528;-82
2023/02/10 09:38:39;;;;;;;23.10;14.10;;;;;;;0.14;53.49;98344.52;109074;1266;42998;-80
2023/02/10 09:41:21;;;;;;;21.70;13.40;;;;;;;0.23;53.83;98345.77;109094;1265;24478;-82
2023/02/10 09:44:05;;;;;;;24.30;15.90;;;;;;;0.33;53.27;98340.55;109078;1273;22530;-81
2023/02/10 09:46:51;;;;;;;18.60;11.80;;;;;;;0.26;52.97;98334.70;109093;1273;22523;-81
2023/02/10 09:49:50;;;;;;;21.80;12.60;;;;;;;0.19;52.72;98339.31;109053;1265;33109;-81
2023/02/10 09:52:33;;;;;;;16.60;9.10;;;;;;;0.17;53.38;98335.70;109029;1274;24187;-81
2023/02/10 09:55:09;;;;;;;22.30;12.70;;;;;;;0.16;53.36;98331.63;109051;1274;23888;-80
2023/02/10 09:57:50;;;;;;;21.90;13.00;;;;;;;0.19;53.27;98321.25;109080;1265;36999;-81
2023/02/10 10:00:28;;;;;;;15.30;9.20;;;;;;;0.12;53.13;98311.07;109084;1274;22527;-81
2023/02/10 10:03:02;;;;;;;19.80;13.40;;;;;;;0.12;53.51;98309.27;109105;1265;25308;-81
2023/02/10 10:05:46;;;;;;;18.30;10.30;;;;;;;0.23;53.68;98303.69;109080;1273;22489;-81
2023/02/10 10:08:29;;;;;;;20.70;12.60;;;;;;;0.29;53.51;98301.96;109057;1266;47558;-81
2023/02/10 10:11:06;;;;;;;17.80;10.50;;;;;;;0.37;53.90;98302.90;109215;1266;24313;-81
2023/02/10 10:13:38;;;;;;;21.10;12.70;;;;;;;0.51;53.50;98303.02;109173;1266;22541;-82
2023/02/10 10:16:20;;;;;;;17.70;8.10;;;;;;;0.59;53.53;98304.33;109124;1269;22524;-81
2023/02/10 10:19:12;;;;;;;13.30;7.70;;;;;;;0.63;53.11;98296.61;109081;1265;33221;-81
2023/02/10 10:21:58;;;;;;;16.00;9.30;;;;;;;0.65;52.68;98299.60;109166;1266;23305;-81
2023/02/10 10:24:53;;;;;;;13.00;7.10;;;;;;;0.74;52.78;98300.80;109180;1265;22546;-81
2023/02/10 10:27:45;;;;;;;17.50;9.40;;;;;;;0.79;52.52;98306.05;109079;1262;56194;-81
2023/02/10 10:30:21;;;;;;;15.30;10.10;;;;;;;0.90;52.57;98307.13;109164;1266;22678;-82
2023/02/10 10:32:59;;;;;;;16.30;9.70;;;;;;;1.05;52.99;98311.14;109149;1265;22527;-81
2023/02/10 10:35:43;;;;;;;14.70;8.70;;;;;;;1.11;52.71;98307.14;109295;1268;22549;-81
2023/02/10 10:38:20;;;;;;;11.40;7.30;;;;;;;1.10;52.09;98307.44;109107;1270;154842;-81
2023/02/10 10:40:55;;;;;;;17.40;11.20;;;;;;;0.99;51.57;98301.01;109201;1265;22597;-82
2023/02/10 10:43:33;;;;;;;11.80;6.70;;;;;;;1.02;52.57;98299.42;109100;1269;22554;-83
2023/02/10 10:46:07;;;;;;;14.70;9.00;;;;;;;0.99;51.87;98284.89;109099;1266;22494;-82
2023/02/10 10:48:42;;;;;;;14.90;8.60;;;;;;;1.02;52.60;98293.55;109150;1266;55044;-83
2023/02/10 10:51:17;;;;;;;14.20;9.10;;;;;;;1.25;52.53;98288.12;109132;1272;22541;-82
2023/02/10 10:53:57;;;;;;;12.70;7.80;;;;;;;1.38;52.35;98286.73;109141;1267;22520;-82
2023/02/10 10:56:38;;;;;;;12.90;6.80;;;;;;;1.49;52.27;98272.23;109113;1266;22520;-83
2023/02/10 10:59:16;;;;;;;;;;;;;;;1.47;51.91;98270.89;109076;1269;62677;-83
2023/02/10 11:01:52;;;;;;;17.10;10.20;;;;;;;1.45;52.26;98281.59;109168;1272;22687;-82
2023/02/10 11:04:29;;;;;;;14.70;9.10;;;;;;;1.52;52.00;98287.23;109155;1271;22540;-82
2023/02/10 11:07:01;;;;;;;13.90;8.20;;;;;;;1.38;51.35;98289.50;109119;1272;22573;-82
2023/02/10 11:09:36;;;;;;;12.40;7.70;;;;;;;1.29;51.71;98287.99;109071;1273;69507;-81
2023/02/10 11:12:23;;;;;;;12.90;6.70;;;;;;;1.18;51.84;98287.01;109140;1270;24239;-81
2023/02/10 11:14:57;;;;;;;16.40;8.70;;;;;;;1.00;51.94;98284.23;109084;1271;22578;-83
2023/02/10 11:17:35;;;;;;;12.70;7.70;;;;;;;0.93;52.49;98287.44;109205;1272;62671;-82
2023/02/10 11:20:22;;;;;;;11.00;7.00;;;;;;;1.03;52.65;98286.33;109227;1273;22524;-83
2023/02/10 11:23:05;;;;;;;12.50;7.20;;;;;;;0.99;52.76;98284.79;109171;1262;22530;-82
2023/02/10 11:25:39;;;;;;;16.80;10.10;;;;;;;0.95;53.29;98277.27;110613;1265;22199;-81
2023/02/10 11:28:22;;;;;;;13.00;7.60;;;;;;;0.96;53.85;98272.67;110502;1265;100821;-81
2023/02/10 11:31:01;;;;;;;15.60;9.90;;;;;;;1.06;53.65;98273.73;109204;1271;25417;-82
2023/02/10 11:33:36;;;;;;;16.80;11.20;;;;;;;1.20;54.00;98271.97;109482;1272;22511;-82
2023/02/10 11:36:11;;;;;;;16.60;9.70;;;;;;;1.38;54.37;98273.73;109391;1273;22838;-82
2023/02/10 11:38:43;;;;;;;17.30;10.80;;;;;;;1.57;54.11;98266.38;109262;1271;49538;-82
2023/02/10 11:41:15;;;;;;;18.70;11.20;;;;;;;1.63;53.40;98267.48;109154;1270;23888;-82
2023/02/10 11:43:51;;;;;;;14.50;7.80;;;;;;;1.63;53.77;98263.20;109250;1273;22649;-82
2023/02/10 11:46:26;;;;;;;16.70;11.70;;;;;;;1.63;53.71;98257.68;109143;1273;25284;-82
2023/02/10 11:49:00;;;;;;;16.10;9.80;;;;;;;1.65;53.84;98259.91;109264;1269;51164;-81
2023/02/10 11:51:33;;;;;;;16.70;10.30;;;;;;;1.68;54.21;98263.46;109222;1272;22906;-82
2023/02/10 11:54:08;;;;;;;17.30;11.90;;;;;;;1.79;54.14;98265.13;109220;1263;22592;-81